createdAt,value
2018-05-18T00:00:40.040Z,10.70
2018-05-18T00:03:07.570Z,10.70
2018-05-18T00:05:35.098Z,10.80
2018-05-18T00:08:02.638Z,10.90
2018-05-18T00:10:30.190Z,10.70
2018-05-18T00:12:57.746Z,10.70
2018-05-18T00:15:25.307Z,10.50
2018-05-18T00:17:52.852Z,10.50
2018-05-18T00:20:23.366Z,10.40
2018-05-18T00:22:50.916Z,10.20
2018-05-18T00:25:18.502Z,10.20
2018-05-18T00:27:46.049Z,10.20
2018-05-18T00:30:13.597Z,10.20
2018-05-18T00:32:41.127Z,10.20
2018-05-18T00:35:09.414Z,10.00
2018-05-18T00:37:37.692Z,10.40
2018-05-18T00:40:06.663Z,10.40
2018-05-18T00:42:34.187Z,10.40
2018-05-18T00:45:01.703Z,10.20
2018-05-18T00:47:29.221Z,10.10
2018-05-18T00:49:56.746Z,10.10
2018-05-18T00:52:24.271Z,10.40
2018-05-18T00:54:52.585Z,9.90
2018-05-18T00:57:20.106Z,9.90
2018-05-18T00:59:48.389Z,9.70
2018-05-18T01:02:15.940Z,9.70
2018-05-18T01:04:44.251Z,9.90
2018-05-18T01:07:11.796Z,9.90
2018-05-18T01:09:39.363Z,10.00
2018-05-18T01:12:06.899Z,9.50
2018-05-18T01:14:34.437Z,9.40
2018-05-18T01:17:02.747Z,9.40
2018-05-18T01:19:30.303Z,9.40
2018-05-18T01:21:57.840Z,9.30
2018-05-18T01:24:26.150Z,9.60
2018-05-18T01:26:53.688Z,9.60
2018-05-18T01:29:21.242Z,9.60
2018-05-18T01:31:49.564Z,9.80
2018-05-18T01:34:17.810Z,9.80
2018-05-18T01:36:45.361Z,9.60
2018-05-18T01:39:12.883Z,9.30
2018-05-18T01:41:40.407Z,9.40
2018-05-18T01:44:07.964Z,9.40
2018-05-18T01:46:35.499Z,9.10
2018-05-18T01:49:03.049Z,8.90
2018-05-18T01:51:30.555Z,9.20
2018-05-18T01:53:58.101Z,9.10
2018-05-18T01:56:25.620Z,8.90
2018-05-18T01:58:53.164Z,8.80
2018-05-18T02:01:21.470Z,9.10
2018-05-18T02:03:48.994Z,9.10
2018-05-18T02:06:16.504Z,9.30
2018-05-18T02:08:44.039Z,9.60
2018-05-18T02:11:11.592Z,9.50
2018-05-18T02:13:39.121Z,9.70
2018-05-18T02:16:06.651Z,9.20
2018-05-18T02:18:34.178Z,8.80
2018-05-18T02:21:01.685Z,8.80
2018-05-18T02:23:29.223Z,8.60
2018-05-18T02:25:56.763Z,8.50
2018-05-18T02:28:24.311Z,8.40
2018-05-18T02:30:52.546Z,8.40
2018-05-18T02:33:20.098Z,8.60
2018-05-18T02:35:47.609Z,8.80
2018-05-18T02:38:15.115Z,8.80
2018-05-18T02:40:42.623Z,8.60
2018-05-18T02:43:10.131Z,9.10
2018-05-18T02:45:37.680Z,9.30
2018-05-18T02:48:05.220Z,9.20
2018-05-18T02:50:32.761Z,9.10
2018-05-18T02:53:00.304Z,8.70
2018-05-18T02:55:27.851Z,8.30
2018-05-18T02:57:55.369Z,8.70
2018-05-18T03:00:22.911Z,8.90
2018-05-18T03:02:50.417Z,8.70
2018-05-18T03:05:17.951Z,8.90
2018-05-18T03:07:45.476Z,9.20
2018-05-18T03:10:13.029Z,9.20
2018-05-18T03:12:40.582Z,8.70
2018-05-18T03:15:08.116Z,8.70
2018-05-18T03:17:35.652Z,9.10
2018-05-18T03:20:03.187Z,9.20
2018-05-18T03:22:30.741Z,8.90
2018-05-18T03:24:58.250Z,9.00
2018-05-18T03:27:26.609Z,8.20
2018-05-18T03:29:54.146Z,8.20
2018-05-18T03:32:21.691Z,8.00
2018-05-18T03:34:49.243Z,8.50
2018-05-18T03:37:16.793Z,8.60
2018-05-18T03:39:44.310Z,8.10
2018-05-18T03:42:11.831Z,7.80
2018-05-18T03:44:39.333Z,7.70
2018-05-18T03:47:07.624Z,7.50
2018-05-18T03:49:35.145Z,7.40
2018-05-18T03:52:02.696Z,7.30
2018-05-18T03:54:30.207Z,8.20
2018-05-18T03:56:57.742Z,8.50
2018-05-18T03:59:25.288Z,8.30
2018-05-18T04:02:04.698Z,8.00
2018-05-18T04:04:44.004Z,7.70
2018-05-18T04:07:23.407Z,7.70
2018-05-18T04:09:51.704Z,8.00
2018-05-18T04:12:19.245Z,8.00
2018-05-18T04:14:47.531Z,8.50
2018-05-18T04:17:15.825Z,8.50
2018-05-18T04:19:43.371Z,8.50
2018-05-18T04:22:10.902Z,8.00
2018-05-18T04:24:38.448Z,8.00
2018-05-18T04:27:05.973Z,7.90
2018-05-18T04:29:33.503Z,7.90
2018-05-18T04:32:01.044Z,8.00
2018-05-18T04:34:28.586Z,8.40
2018-05-18T04:36:56.092Z,8.50
2018-05-18T04:39:23.625Z,8.40
2018-05-18T04:41:51.145Z,8.20
2018-05-18T04:44:18.691Z,8.60
2018-05-18T04:46:46.232Z,8.80
2018-05-18T04:49:13.743Z,8.70
2018-05-18T04:51:41.282Z,9.00
2018-05-18T04:54:08.814Z,8.90
2018-05-18T04:56:36.355Z,8.80
2018-05-18T04:59:03.919Z,8.80
2018-05-18T05:01:31.459Z,9.10
2018-05-18T05:03:59.002Z,8.80
2018-05-18T05:06:27.312Z,8.90
2018-05-18T05:08:54.839Z,8.90
2018-05-18T05:11:23.106Z,8.80
2018-05-18T05:13:50.620Z,8.80
2018-05-18T05:16:18.134Z,9.00
2018-05-18T05:18:45.665Z,9.00
2018-05-18T05:21:13.158Z,9.00
2018-05-18T05:23:41.512Z,9.10
2018-05-18T05:26:08.980Z,9.10
2018-05-18T05:28:37.268Z,9.30
2018-05-18T05:31:04.784Z,9.20
2018-05-18T05:33:32.353Z,9.20
2018-05-18T05:35:59.864Z,9.20
2018-05-18T05:38:27.412Z,9.20
2018-05-18T05:40:54.918Z,9.40
2018-05-18T05:43:22.470Z,9.30
2018-05-18T05:45:49.995Z,9.40
2018-05-18T05:48:17.537Z,9.50
2018-05-18T05:50:45.080Z,9.50
2018-05-18T05:53:13.395Z,9.70
2018-05-18T05:55:40.916Z,9.70
2018-05-18T05:58:08.440Z,9.70
2018-05-18T06:00:35.981Z,9.60
2018-05-18T06:03:03.519Z,9.60
2018-05-18T06:05:31.075Z,9.60
2018-05-18T06:07:58.595Z,9.80
2018-05-18T06:10:26.123Z,9.80
2018-05-18T06:12:53.675Z,9.90
2018-05-18T06:15:21.195Z,9.90
2018-05-18T06:17:49.495Z,10.10
2018-05-18T06:20:17.036Z,10.10
2018-05-18T06:22:44.632Z,10.10
2018-05-18T06:25:12.190Z,10.30
2018-05-18T06:27:39.749Z,10.40
2018-05-18T06:30:07.308Z,10.50
2018-05-18T06:32:34.864Z,10.60
2018-05-18T06:35:02.424Z,10.70
2018-05-18T06:37:29.958Z,10.60
2018-05-18T06:39:57.503Z,10.80
2018-05-18T06:42:25.799Z,10.90
2018-05-18T06:44:53.324Z,10.90
2018-05-18T06:47:20.868Z,11.00
2018-05-18T06:49:48.395Z,11.10
2018-05-18T06:52:15.940Z,11.30
2018-05-18T06:54:43.461Z,11.50
2018-05-18T06:57:10.979Z,11.70
2018-05-18T06:59:38.528Z,11.60
2018-05-18T07:02:06.054Z,11.70
2018-05-18T07:04:33.620Z,11.70
2018-05-18T07:07:01.178Z,11.70
2018-05-18T07:09:28.699Z,11.80
2018-05-18T07:11:56.245Z,11.90
2018-05-18T07:14:23.763Z,12.00
2018-05-18T07:16:51.283Z,12.30
2018-05-18T07:19:18.836Z,12.30
2018-05-18T07:21:46.380Z,12.20
2018-05-18T07:24:13.934Z,12.20
2018-05-18T07:26:41.482Z,12.00
2018-05-18T07:29:09.031Z,11.90
2018-05-18T07:31:36.604Z,11.80
2018-05-18T07:34:04.185Z,11.80
2018-05-18T07:36:31.707Z,11.80
2018-05-18T07:38:59.231Z,12.00
2018-05-18T07:41:27.543Z,12.10
2018-05-18T07:43:55.166Z,12.10
2018-05-18T07:46:22.675Z,12.10
2018-05-18T07:48:50.231Z,12.00
2018-05-18T07:51:17.794Z,12.00
2018-05-18T07:53:45.306Z,12.00
2018-05-18T07:56:12.872Z,12.00
2018-05-18T07:58:40.420Z,12.00
2018-05-18T08:01:07.960Z,12.00
2018-05-18T08:03:35.508Z,12.10
2018-05-18T08:06:03.062Z,12.10
2018-05-18T08:08:30.624Z,12.10
2018-05-18T08:10:58.216Z,12.10
2018-05-18T08:13:26.502Z,12.30
2018-05-18T08:15:54.031Z,12.30
2018-05-18T08:18:21.547Z,13.00
2018-05-18T08:20:49.062Z,13.50
2018-05-18T08:23:16.611Z,13.70
2018-05-18T08:25:44.156Z,13.50
2018-05-18T08:28:11.690Z,13.50
2018-05-18T08:30:51.075Z,13.60
2018-05-18T08:33:18.627Z,13.80
2018-05-18T08:35:46.185Z,13.90
2018-05-18T08:38:15.236Z,13.40
2018-05-18T08:40:42.784Z,13.40
2018-05-18T08:43:10.339Z,13.20
2018-05-18T08:45:37.854Z,13.10
2018-05-18T08:48:05.371Z,13.20
2018-05-18T08:50:32.895Z,13.30
2018-05-18T08:53:00.406Z,13.40
2018-05-18T08:55:27.947Z,13.40
2018-05-18T08:57:55.507Z,13.40
2018-05-18T09:00:23.023Z,13.60
2018-05-18T09:02:50.576Z,13.40
2018-05-18T09:05:18.096Z,13.50
2018-05-18T09:07:45.636Z,13.70
2018-05-18T09:10:13.152Z,14.50
2018-05-18T09:12:40.694Z,14.80
2018-05-18T09:15:08.268Z,14.40
2018-05-18T09:17:35.791Z,13.80
2018-05-18T09:20:03.308Z,13.70
2018-05-18T09:22:31.590Z,14.60
2018-05-18T09:24:59.873Z,14.70
2018-05-18T09:27:28.112Z,14.70
2018-05-18T09:29:55.643Z,14.90
2018-05-18T09:32:23.165Z,14.80
2018-05-18T09:34:50.683Z,14.70
2018-05-18T09:37:18.987Z,14.70
2018-05-18T09:39:47.347Z,14.40
2018-05-18T09:42:14.847Z,14.40
2018-05-18T09:44:42.369Z,14.60
2018-05-18T09:47:09.929Z,15.40
2018-05-18T09:49:37.521Z,15.80
2018-05-18T09:52:05.085Z,15.60
2018-05-18T09:54:32.862Z,15.40
2018-05-18T09:57:00.270Z,15.10
2018-05-18T09:59:27.790Z,14.70
2018-05-18T10:01:55.346Z,14.50
2018-05-18T10:04:22.912Z,14.80
2018-05-18T10:06:50.540Z,15.50
2018-05-18T10:09:18.034Z,15.60
2018-05-18T10:11:45.543Z,15.30
2018-05-18T10:14:13.065Z,15.10
2018-05-18T10:16:40.625Z,14.80
2018-05-18T10:19:08.171Z,14.80
2018-05-18T10:21:35.744Z,14.70
2018-05-18T10:24:03.284Z,14.70
2018-05-18T10:26:30.863Z,14.80
2018-05-18T10:28:58.455Z,15.10
2018-05-18T10:31:26.775Z,15.40
2018-05-18T10:36:57.379Z,15.50
2018-05-18T10:39:24.916Z,16.50
2018-05-18T10:41:52.468Z,16.60
2018-05-18T10:44:20.019Z,15.90
2018-05-18T10:46:47.560Z,15.50
2018-05-18T10:49:15.067Z,15.30
2018-05-18T10:51:42.609Z,15.70
2018-05-18T10:54:10.168Z,15.40
2018-05-18T10:56:37.727Z,15.20
2018-05-18T10:59:05.278Z,15.40
2018-05-18T11:01:33.026Z,16.10
2018-05-18T11:04:00.593Z,16.50
2018-05-18T11:06:28.102Z,16.80
2018-05-18T11:08:55.646Z,16.60
2018-05-18T11:11:23.215Z,16.00
2018-05-18T11:13:51.548Z,16.50
2018-05-18T11:16:19.097Z,16.50
2018-05-18T11:18:46.690Z,16.90
2018-05-18T11:21:14.258Z,16.50
2018-05-18T11:23:41.778Z,16.30
2018-05-18T11:26:09.296Z,15.80
2018-05-18T11:28:37.607Z,15.80
2018-05-18T11:31:06.050Z,15.70
2018-05-18T11:33:34.380Z,15.80
2018-05-18T11:36:01.947Z,15.80
2018-05-18T11:38:29.503Z,16.10
2018-05-18T11:40:57.070Z,16.80
2018-05-18T11:43:24.603Z,16.80
2018-05-18T11:45:52.140Z,16.80
2018-05-18T11:48:19.662Z,16.80
2018-05-18T11:50:47.183Z,16.60
2018-05-18T11:53:14.703Z,16.40
2018-05-18T11:55:42.252Z,16.50
2018-05-18T11:58:09.805Z,16.70
2018-05-18T12:00:37.329Z,16.90
2018-05-18T12:03:04.852Z,17.30
2018-05-18T12:05:32.409Z,17.70
2018-05-18T12:07:59.924Z,17.70
2018-05-18T12:10:27.460Z,17.50
2018-05-18T12:12:55.806Z,17.30
2018-05-18T12:15:23.330Z,16.80
2018-05-18T12:17:50.856Z,16.10
2018-05-18T12:20:18.412Z,16.10
2018-05-18T12:22:45.956Z,16.20
2018-05-18T12:25:13.496Z,16.80
2018-05-18T12:27:41.028Z,16.70
2018-05-18T12:30:09.359Z,16.90
2018-05-18T12:32:36.921Z,16.90
2018-05-18T12:35:04.445Z,17.30
2018-05-18T12:37:32.004Z,17.30
2018-05-18T12:39:59.555Z,17.50
2018-05-18T12:42:27.126Z,17.70
2018-05-18T12:44:54.643Z,17.40
2018-05-18T12:47:22.167Z,17.10
2018-05-18T12:49:49.703Z,17.10
2018-05-18T12:52:17.223Z,17.30
2018-05-18T12:54:44.731Z,17.20
2018-05-18T12:57:12.246Z,17.00
2018-05-18T12:59:40.563Z,17.20
2018-05-18T13:02:08.099Z,17.20
2018-05-18T13:04:35.648Z,17.50
2018-05-18T13:07:03.973Z,17.40
2018-05-18T13:09:31.487Z,17.40
2018-05-18T13:11:59.767Z,16.90
2018-05-18T13:14:28.077Z,16.50
2018-05-18T13:16:55.632Z,16.50
2018-05-18T13:19:23.170Z,16.50
2018-05-18T13:21:50.731Z,16.80
2018-05-18T13:24:18.254Z,16.80
2018-05-18T13:26:46.595Z,16.90
2018-05-18T13:29:14.160Z,16.90
2018-05-18T13:31:41.732Z,16.80
2018-05-18T13:34:09.324Z,16.90
2018-05-18T13:36:37.653Z,16.90
2018-05-18T13:39:06.018Z,16.80
2018-05-18T13:41:33.580Z,16.90
2018-05-18T13:44:01.185Z,16.80
2018-05-18T13:46:29.529Z,16.90
2018-05-18T13:48:57.095Z,16.90
2018-05-18T13:51:24.660Z,16.90
2018-05-18T13:53:52.186Z,16.80
2018-05-18T13:56:19.749Z,16.90
2018-05-18T13:58:47.290Z,17.00
2018-05-18T14:01:14.813Z,17.00
2018-05-18T14:03:42.341Z,17.10
2018-05-18T14:06:09.911Z,17.00
2018-05-18T14:08:37.485Z,17.00
2018-05-18T14:11:05.164Z,16.70
2018-05-18T14:13:32.638Z,16.70
2018-05-18T14:16:00.175Z,16.80
2018-05-18T14:18:27.710Z,16.80
2018-05-18T14:20:55.299Z,17.00
2018-05-18T14:23:22.819Z,16.90
2018-05-18T14:25:50.340Z,16.60
2018-05-18T14:28:17.899Z,16.50
2018-05-18T14:30:45.456Z,16.50
2018-05-18T14:33:13.019Z,16.90
2018-05-18T14:35:40.571Z,17.00
2018-05-18T14:38:08.214Z,16.80
2018-05-18T14:40:35.691Z,16.60
2018-05-18T14:43:03.253Z,16.40
2018-05-18T14:45:30.795Z,16.60
2018-05-18T14:47:58.330Z,16.80
2018-05-18T14:50:25.883Z,17.00
2018-05-18T14:52:53.400Z,16.90
2018-05-18T14:55:20.931Z,16.90
2018-05-18T14:57:49.228Z,16.70
2018-05-18T15:00:16.779Z,16.70
2018-05-18T15:02:44.318Z,16.60
2018-05-18T15:05:11.847Z,16.60
2018-05-18T15:07:39.405Z,16.60
2018-05-18T15:10:06.943Z,16.70
2018-05-18T15:12:34.498Z,16.40
2018-05-18T15:15:02.039Z,16.30
2018-05-18T15:17:29.559Z,16.20
2018-05-18T15:19:57.091Z,16.20
2018-05-18T15:22:24.642Z,16.30
2018-05-18T15:24:52.267Z,16.50
2018-05-18T15:27:19.798Z,16.50
2018-05-18T15:29:47.343Z,16.30
2018-05-18T15:32:14.909Z,16.20
2018-05-18T15:34:42.425Z,16.30
2018-05-18T15:37:09.958Z,16.30
2018-05-18T15:39:38.274Z,16.10
2018-05-18T15:42:05.795Z,16.10
2018-05-18T15:44:33.322Z,16.00
2018-05-18T15:47:00.839Z,16.00
2018-05-18T15:49:28.400Z,16.00
2018-05-18T15:51:55.927Z,16.10
2018-05-18T15:54:24.215Z,16.20
2018-05-18T15:56:52.495Z,16.00
2018-05-18T15:59:20.064Z,15.90
2018-05-18T16:01:47.627Z,15.90
2018-05-18T16:04:15.235Z,16.10
2018-05-18T16:06:42.714Z,16.20
2018-05-18T16:09:10.994Z,16.20
2018-05-18T16:11:38.554Z,16.20
2018-05-18T16:14:06.104Z,16.20
2018-05-18T16:16:34.402Z,16.00
2018-05-18T16:19:01.949Z,16.00
2018-05-18T16:21:29.474Z,15.90
2018-05-18T16:23:57.016Z,16.00
2018-05-18T16:26:24.553Z,16.10
2018-05-18T16:28:52.074Z,16.20
2018-05-18T16:31:20.366Z,15.90
2018-05-18T16:33:47.936Z,15.90
2018-05-18T16:36:15.504Z,15.80
2018-05-18T16:38:43.032Z,15.70
2018-05-18T16:41:10.603Z,15.70
2018-05-18T16:43:38.164Z,15.70
2018-05-18T16:46:05.694Z,15.70
2018-05-18T16:48:33.269Z,15.70
2018-05-18T16:51:00.830Z,15.60
2018-05-18T16:53:29.141Z,15.60
2018-05-18T16:55:56.704Z,15.60
2018-05-18T16:58:24.267Z,15.70
2018-05-18T17:00:51.788Z,15.60
2018-05-18T17:03:20.104Z,15.40
2018-05-18T17:05:47.670Z,15.30
2018-05-18T17:08:15.231Z,15.40
2018-05-18T17:10:43.534Z,15.20
2018-05-18T17:13:11.091Z,15.20
2018-05-18T17:15:38.654Z,15.10
2018-05-18T17:18:06.222Z,15.20
2018-05-18T17:20:33.787Z,15.10
2018-05-18T17:23:01.353Z,15.00
2018-05-18T17:25:28.887Z,14.80
2018-05-18T17:27:56.431Z,14.80
2018-05-18T17:30:23.964Z,14.70
2018-05-18T17:32:51.511Z,14.80
2018-05-18T17:35:19.059Z,14.80
2018-05-18T17:37:46.620Z,14.70
2018-05-18T17:40:14.179Z,14.70
2018-05-18T17:42:41.740Z,14.70
2018-05-18T17:45:09.292Z,14.70
2018-05-18T17:47:36.865Z,14.70
2018-05-18T17:50:04.386Z,14.60
2018-05-18T17:52:31.903Z,14.40
2018-05-18T17:54:59.426Z,14.30
2018-05-18T17:57:26.975Z,14.00
2018-05-18T17:59:54.545Z,14.00
2018-05-18T18:02:22.084Z,13.90
2018-05-18T18:04:49.598Z,13.90
2018-05-18T18:07:17.155Z,13.80
2018-05-18T18:09:44.679Z,13.80
2018-05-18T18:12:12.240Z,13.80
2018-05-18T18:14:39.766Z,13.80
2018-05-18T18:17:07.324Z,13.70
2018-05-18T18:19:34.877Z,13.70
2018-05-18T18:22:02.408Z,13.70
2018-05-18T18:24:29.968Z,13.60
2018-05-18T18:26:57.499Z,13.50
2018-05-18T18:29:25.033Z,13.50
2018-05-18T18:31:53.320Z,13.40
2018-05-18T18:34:20.842Z,13.40
2018-05-18T18:36:48.384Z,13.40
2018-05-18T18:39:16.680Z,13.30
2018-05-18T18:41:44.223Z,13.30
2018-05-18T18:44:12.314Z,13.30
2018-05-18T18:46:39.820Z,13.30
2018-05-18T18:49:07.347Z,13.20
2018-05-18T18:51:35.651Z,13.10
2018-05-18T18:54:03.207Z,13.10
2018-05-18T18:56:30.767Z,13.10
2018-05-18T18:58:58.289Z,12.80
2018-05-18T19:01:25.851Z,12.80
2018-05-18T19:03:54.229Z,13.00
2018-05-18T19:06:21.758Z,12.90
2018-05-18T19:08:49.321Z,12.80
2018-05-18T19:11:16.870Z,12.80
2018-05-18T19:13:44.396Z,12.70
2018-05-18T19:16:11.920Z,12.70
2018-05-18T19:18:40.222Z,12.40
2018-05-18T19:21:07.782Z,12.40
2018-05-18T19:23:35.319Z,12.20
2018-05-18T19:26:03.657Z,12.40
2018-05-18T19:28:31.197Z,12.40
2018-05-18T19:30:58.822Z,12.30
2018-05-18T19:33:27.107Z,12.30
2018-05-18T19:35:55.425Z,12.30
2018-05-18T19:38:22.947Z,12.20
2018-05-18T19:40:50.486Z,12.20
2018-05-18T19:43:18.779Z,12.20
2018-05-18T19:45:46.310Z,12.20
2018-05-18T19:48:13.839Z,12.10
2018-05-18T19:50:41.387Z,12.10
2018-05-18T19:53:08.903Z,12.10
2018-05-18T19:55:36.446Z,12.10
2018-05-18T19:58:04.770Z,11.70
2018-05-18T20:00:33.101Z,11.40
2018-05-18T20:03:01.447Z,11.40
2018-05-18T20:05:29.778Z,11.50
2018-05-18T20:07:57.314Z,11.50
2018-05-18T20:10:25.644Z,11.50
2018-05-18T20:12:53.179Z,11.50
2018-05-18T20:15:20.722Z,11.50
2018-05-18T20:17:48.291Z,11.50
2018-05-18T20:20:15.858Z,11.60
2018-05-18T20:22:43.385Z,11.40
2018-05-18T20:25:11.710Z,11.60
2018-05-18T20:27:39.268Z,11.60
2018-05-18T20:30:06.822Z,11.30
2018-05-18T20:32:34.339Z,11.20
2018-05-18T20:35:01.914Z,11.10
2018-05-18T20:37:29.443Z,11.30
2018-05-18T20:39:56.996Z,11.30
2018-05-18T20:42:24.527Z,11.20
2018-05-18T20:44:52.073Z,11.10
2018-05-18T20:47:19.612Z,11.10
2018-05-18T20:49:47.149Z,11.10
2018-05-18T20:52:14.666Z,11.30
2018-05-18T20:54:42.190Z,11.10
2018-05-18T20:57:09.739Z,10.90
2018-05-18T20:59:37.292Z,10.80
2018-05-18T21:02:05.590Z,10.70
2018-05-18T21:04:33.154Z,10.60
2018-05-18T21:07:00.708Z,10.60
2018-05-18T21:09:28.227Z,10.70
2018-05-18T21:11:55.745Z,10.90
2018-05-18T21:14:23.269Z,11.00
2018-05-18T21:16:51.572Z,10.80
2018-05-18T21:19:19.126Z,10.80
2018-05-18T21:21:46.683Z,10.70
2018-05-18T21:24:14.252Z,10.60
2018-05-18T21:26:41.774Z,10.50
2018-05-18T21:29:10.100Z,10.40
2018-05-18T21:31:37.620Z,10.30
2018-05-18T21:34:05.164Z,10.40
2018-05-18T21:36:32.710Z,10.20
2018-05-18T21:39:00.253Z,10.10
2018-05-18T21:41:27.817Z,10.10
2018-05-18T21:43:55.346Z,10.10
2018-05-18T21:46:22.875Z,10.00
2018-05-18T21:48:50.431Z,10.00
2018-05-18T21:51:17.954Z,10.10
2018-05-18T21:53:45.478Z,10.10
2018-05-18T21:56:13.032Z,10.00
2018-05-18T21:58:40.605Z,9.90
2018-05-18T22:01:08.115Z,9.80
2018-05-18T22:03:35.658Z,9.80
2018-05-18T22:06:03.971Z,9.80
2018-05-18T22:08:31.511Z,9.70
2018-05-18T22:10:59.808Z,9.90
2018-05-18T22:13:27.319Z,9.90
2018-05-18T22:15:54.858Z,10.00
2018-05-18T22:18:22.404Z,10.20
2018-05-18T22:20:49.950Z,10.10
2018-05-18T22:23:17.487Z,10.00
2018-05-18T22:25:45.033Z,9.90
2018-05-18T22:28:13.314Z,9.80
2018-05-18T22:30:40.889Z,9.70
2018-05-18T22:33:08.425Z,9.80
2018-05-18T22:35:36.724Z,9.80
2018-05-18T22:38:04.245Z,9.80
2018-05-18T22:40:31.767Z,9.80
2018-05-18T22:42:59.285Z,9.60
2018-05-18T22:45:27.556Z,9.70
2018-05-18T22:47:55.832Z,9.70
2018-05-18T22:50:24.151Z,9.80
2018-05-18T22:52:51.706Z,9.80
2018-05-18T22:55:19.218Z,9.80
2018-05-18T22:57:47.519Z,9.70
2018-05-18T23:00:26.542Z,9.60
2018-05-18T23:02:54.049Z,9.40
2018-05-18T23:05:21.554Z,9.30
2018-05-18T23:07:49.824Z,9.60
2018-05-18T23:10:18.139Z,9.50
2018-05-18T23:12:45.735Z,9.50
2018-05-18T23:15:13.246Z,9.60
2018-05-18T23:17:40.783Z,9.40
2018-05-18T23:20:08.299Z,9.20
2018-05-18T23:22:35.839Z,9.20
2018-05-18T23:25:03.385Z,9.10
2018-05-18T23:27:31.699Z,9.30
2018-05-18T23:29:59.240Z,9.30
2018-05-18T23:32:26.813Z,9.40
2018-05-18T23:34:54.378Z,9.40
2018-05-18T23:37:21.874Z,9.30
2018-05-18T23:39:49.411Z,9.30
2018-05-18T23:42:17.708Z,9.50
2018-05-18T23:44:46.105Z,9.40
2018-05-18T23:47:13.617Z,9.20
2018-05-18T23:49:41.151Z,9.00
2018-05-18T23:52:08.691Z,9.30
2018-05-18T23:54:36.270Z,9.10
2018-05-18T23:57:03.802Z,9.40
2018-05-18T23:59:31.309Z,9.20
